createdAt,value
2023-03-29T00:01:35.210Z,7.60
2023-03-29T00:04:05.568Z,8.20
2023-03-29T00:06:33.921Z,14.90
2023-03-29T00:09:04.801Z,7.90
2023-03-29T00:11:33.360Z,8.40
2023-03-29T00:14:01.385Z,13.60
2023-03-29T00:16:29.686Z,9.70
2023-03-29T00:18:59.299Z,11.20
2023-03-29T00:21:27.271Z,7.20
2023-03-29T00:23:55.709Z,8.40
2023-03-29T00:26:23.780Z,9.80
2023-03-29T00:28:51.658Z,10.50
2023-03-29T00:31:19.759Z,7.10
2023-03-29T00:33:48.118Z,7.70
2023-03-29T00:36:16.101Z,6.10
2023-03-29T00:38:44.000Z,8.00
2023-03-29T00:41:12.412Z,5.90
2023-03-29T00:43:55.311Z,8.30
2023-03-29T00:46:24.333Z,6.30
2023-03-29T00:48:55.366Z,7.60
2023-03-29T00:51:26.235Z,10.30
2023-03-29T00:53:57.894Z,11.30
2023-03-29T00:56:30.996Z,6.90
2023-03-29T00:59:03.089Z,8.00
2023-03-29T01:01:37.459Z,9.40
2023-03-29T01:04:18.774Z,6.50
2023-03-29T01:06:53.148Z,5.40
2023-03-29T01:09:24.128Z,12.00
2023-03-29T01:11:55.634Z,6.50
2023-03-29T01:14:33.122Z,9.90
2023-03-29T01:17:01.410Z,10.20
2023-03-29T01:19:38.357Z,10.20
2023-03-29T01:22:17.700Z,10.70
2023-03-29T01:25:00.506Z,9.90
2023-03-29T01:27:49.532Z,10.30
2023-03-29T01:30:23.016Z,9.10
2023-03-29T01:32:58.540Z,8.20
2023-03-29T01:35:35.794Z,9.40
2023-03-29T01:38:09.473Z,8.70
2023-03-29T01:40:37.617Z,12.00
2023-03-29T01:43:16.956Z,10.10
2023-03-29T01:45:50.273Z,8.90
2023-03-29T01:48:24.556Z,8.00
2023-03-29T01:50:55.448Z,9.90
2023-03-29T01:53:30.261Z,7.70
2023-03-29T01:56:04.498Z,8.50
2023-03-29T01:58:38.062Z,10.70
2023-03-29T02:01:10.082Z,9.00
2023-03-29T02:03:42.265Z,12.40
2023-03-29T02:06:14.173Z,9.40
2023-03-29T02:08:44.179Z,7.70
2023-03-29T02:11:15.144Z,13.90
2023-03-29T02:13:43.150Z,10.70
2023-03-29T02:16:13.914Z,10.40
2023-03-29T02:18:45.906Z,16.20
2023-03-29T02:21:23.896Z,12.80
2023-03-29T02:23:54.343Z,9.60
2023-03-29T02:26:23.400Z,9.80
2023-03-29T02:28:52.182Z,8.20
2023-03-29T02:31:29.036Z,9.20
2023-03-29T02:34:01.998Z,16.10
2023-03-29T02:36:35.419Z,8.00
2023-03-29T02:39:07.514Z,9.60
2023-03-29T02:41:37.753Z,7.60
2023-03-29T02:44:08.275Z,9.50
2023-03-29T02:46:37.520Z,8.70
2023-03-29T02:49:06.097Z,9.90
2023-03-29T02:51:36.037Z,9.90
2023-03-29T02:54:11.341Z,10.30
2023-03-29T02:56:44.187Z,10.10
2023-03-29T02:59:12.425Z,11.20
2023-03-29T03:01:42.461Z,7.60
2023-03-29T03:04:11.545Z,7.80
2023-03-29T03:06:39.711Z,11.70
2023-03-29T03:09:09.705Z,11.50
2023-03-29T03:11:39.826Z,9.50
2023-03-29T03:14:09.127Z,9.30
2023-03-29T03:16:37.379Z,10.50
2023-03-29T03:19:05.728Z,9.00
2023-03-29T03:21:34.594Z,9.70
2023-03-29T03:24:02.567Z,11.90
2023-03-29T03:26:30.707Z,10.90
2023-03-29T03:29:00.208Z,10.50
2023-03-29T03:31:46.914Z,8.40
2023-03-29T03:34:34.040Z,8.80
2023-03-29T03:37:02.891Z,7.50
2023-03-29T03:39:32.948Z,13.40
2023-03-29T03:42:01.494Z,10.00
2023-03-29T03:44:29.911Z,11.30
2023-03-29T03:47:16.753Z,7.90
2023-03-29T03:49:45.148Z,8.50
2023-03-29T03:52:14.007Z,11.80
2023-03-29T03:54:42.471Z,8.20
2023-03-29T03:57:32.549Z,8.40
2023-03-29T04:00:00.798Z,10.70
2023-03-29T04:02:41.247Z,8.40
2023-03-29T04:05:09.584Z,8.60
2023-03-29T04:07:53.622Z,10.60
2023-03-29T04:10:52.712Z,8.20
2023-03-29T04:13:25.819Z,8.50
2023-03-29T04:16:12.280Z,13.10
2023-03-29T04:18:40.552Z,10.80
2023-03-29T04:21:09.118Z,7.40
2023-03-29T04:23:37.281Z,8.60
2023-03-29T04:26:07.191Z,11.30
2023-03-29T04:28:45.661Z,18.40
2023-03-29T04:31:34.598Z,11.40
2023-03-29T04:34:16.277Z,9.20
2023-03-29T04:36:46.114Z,15.80
2023-03-29T04:39:19.621Z,11.50
2023-03-29T04:41:51.547Z,12.90
2023-03-29T04:44:27.501Z,10.50
2023-03-29T04:46:59.303Z,16.70
2023-03-29T04:49:35.918Z,16.30
2023-03-29T04:52:08.445Z,10.50
2023-03-29T04:54:38.368Z,14.30
2023-03-29T04:57:16.805Z,13.00
2023-03-29T05:00:14.312Z,14.60
2023-03-29T05:05:29.684Z,19.00
2023-03-29T05:08:02.655Z,21.20
2023-03-29T05:10:45.720Z,13.40
2023-03-29T05:13:16.178Z,9.40
2023-03-29T05:15:44.128Z,13.00
2023-03-29T05:18:12.088Z,12.20
2023-03-29T05:20:41.742Z,11.80
2023-03-29T05:23:10.269Z,9.80
2023-03-29T05:25:58.612Z,10.70
2023-03-29T05:28:26.828Z,9.60
2023-03-29T05:31:01.723Z,11.90
2023-03-29T05:36:03.156Z,9.70
2023-03-29T05:38:32.347Z,10.40
2023-03-29T05:41:00.723Z,10.10
2023-03-29T05:43:35.029Z,18.30
2023-03-29T05:46:03.790Z,7.90
2023-03-29T05:48:31.935Z,10.20
2023-03-29T05:51:00.418Z,10.70
2023-03-29T05:53:29.521Z,10.30
2023-03-29T05:55:57.662Z,14.20
2023-03-29T05:58:28.421Z,7.00
2023-03-29T06:00:57.120Z,9.60
2023-03-29T06:03:58.265Z,10.30
2023-03-29T06:06:31.400Z,14.50
2023-03-29T06:09:02.229Z,9.70
2023-03-29T06:11:35.387Z,11.00
2023-03-29T06:14:38.434Z,9.50
2023-03-29T06:17:15.988Z,14.10
2023-03-29T06:19:44.076Z,9.20
2023-03-29T06:22:14.712Z,11.40
2023-03-29T06:24:43.862Z,9.30
2023-03-29T06:27:18.982Z,8.80
2023-03-29T06:29:47.537Z,10.70
2023-03-29T06:32:16.431Z,9.40
2023-03-29T06:34:50.274Z,8.90
2023-03-29T06:37:40.499Z,9.10
2023-03-29T06:40:29.262Z,10.70
2023-03-29T06:42:57.669Z,8.80
2023-03-29T06:45:44.692Z,12.30
2023-03-29T06:48:28.178Z,7.20
2023-03-29T06:50:56.554Z,7.60
2023-03-29T06:53:27.505Z,9.10
2023-03-29T06:56:04.552Z,8.10
2023-03-29T06:58:49.062Z,8.20
2023-03-29T07:01:39.727Z,8.10
2023-03-29T07:04:15.609Z,8.50
2023-03-29T07:07:07.271Z,6.30
2023-03-29T07:09:39.241Z,5.40
2023-03-29T07:12:30.368Z,9.90
2023-03-29T07:15:00.808Z,7.40
2023-03-29T07:17:49.180Z,7.40
2023-03-29T07:20:17.952Z,6.50
2023-03-29T07:22:50.605Z,7.80
2023-03-29T07:25:19.716Z,8.10
2023-03-29T07:27:48.270Z,7.50
2023-03-29T07:30:20.634Z,9.30
2023-03-29T07:32:51.667Z,5.80
2023-03-29T07:35:30.634Z,7.90
2023-03-29T07:37:59.232Z,8.30
2023-03-29T07:40:27.571Z,7.40
2023-03-29T07:42:58.925Z,10.00
2023-03-29T07:45:29.157Z,6.30
2023-03-29T07:48:10.201Z,7.80
2023-03-29T07:50:49.785Z,7.10
2023-03-29T07:53:20.549Z,7.30
2023-03-29T07:55:49.330Z,7.90
2023-03-29T07:58:35.709Z,8.80
2023-03-29T08:01:07.879Z,7.10
2023-03-29T08:03:59.240Z,5.10
2023-03-29T08:06:48.293Z,8.40
2023-03-29T08:09:17.012Z,6.50
2023-03-29T08:11:45.200Z,5.60
2023-03-29T08:14:25.252Z,8.80
2023-03-29T08:16:59.060Z,9.00
2023-03-29T08:19:27.286Z,5.20
2023-03-29T08:22:04.035Z,8.20
2023-03-29T08:24:46.662Z,10.10
2023-03-29T08:27:15.130Z,9.00
2023-03-29T08:29:43.097Z,5.90
2023-03-29T08:32:11.447Z,7.20
2023-03-29T08:34:39.431Z,6.40
2023-03-29T08:37:18.546Z,6.30
2023-03-29T08:39:48.197Z,5.90
2023-03-29T08:43:03.638Z,5.50
2023-03-29T08:45:44.974Z,8.20
2023-03-29T08:48:23.175Z,4.70
2023-03-29T08:50:55.725Z,6.50
2023-03-29T08:53:30.622Z,7.00
2023-03-29T08:56:17.939Z,4.50
2023-03-29T09:01:48.782Z,5.00
2023-03-29T09:04:22.277Z,4.90
2023-03-29T09:06:54.397Z,9.40
2023-03-29T09:09:31.759Z,5.50
2023-03-29T09:12:12.154Z,6.30
2023-03-29T09:14:57.791Z,9.70
2023-03-29T09:17:38.825Z,6.20
2023-03-29T09:20:22.395Z,5.60
2023-03-29T09:23:04.066Z,6.10
2023-03-29T09:25:59.500Z,3.70
2023-03-29T09:28:50.625Z,6.20
2023-03-29T09:31:22.764Z,5.40
2023-03-29T09:33:57.779Z,4.90
2023-03-29T09:36:46.099Z,4.30
2023-03-29T09:39:15.811Z,11.70
2023-03-29T09:41:50.792Z,6.50
2023-03-29T09:44:30.881Z,6.30
2023-03-29T09:47:08.688Z,4.20
2023-03-29T09:49:43.960Z,5.90
2023-03-29T09:52:15.865Z,6.70
2023-03-29T09:57:33.089Z,8.40
2023-03-29T10:00:05.107Z,6.50
2023-03-29T10:02:41.659Z,5.40
2023-03-29T10:05:17.436Z,5.30
2023-03-29T10:07:50.569Z,5.90
2023-03-29T10:10:25.852Z,6.70
2023-03-29T10:12:57.224Z,11.40
2023-03-29T10:15:30.130Z,7.50
2023-03-29T10:18:00.526Z,5.80
2023-03-29T10:20:28.717Z,5.50
2023-03-29T10:22:57.973Z,6.50
2023-03-29T10:25:29.413Z,4.40
2023-03-29T10:28:04.680Z,4.70
2023-03-29T10:30:37.967Z,5.40
2023-03-29T10:33:15.768Z,7.40
2023-03-29T10:35:46.540Z,6.40
2023-03-29T10:38:18.954Z,6.30
2023-03-29T10:40:49.198Z,8.90
2023-03-29T10:43:24.648Z,5.90
2023-03-29T10:45:54.731Z,12.10
2023-03-29T10:48:28.368Z,6.40
2023-03-29T10:51:00.397Z,5.30
2023-03-29T10:53:31.123Z,5.20
2023-03-29T10:56:11.401Z,5.90
2023-03-29T10:58:55.396Z,7.60
2023-03-29T11:01:34.263Z,10.80
2023-03-29T11:04:20.232Z,7.20
2023-03-29T11:06:59.239Z,7.40
2023-03-29T11:09:42.269Z,3.80
2023-03-29T11:12:20.229Z,6.30
2023-03-29T11:15:00.181Z,4.60
2023-03-29T11:17:50.244Z,5.30
2023-03-29T11:20:27.068Z,14.60
2023-03-29T11:23:07.761Z,3.90
2023-03-29T11:25:47.767Z,7.80
2023-03-29T11:28:29.283Z,6.80
2023-03-29T11:31:05.171Z,7.20
2023-03-29T11:33:50.384Z,5.10
2023-03-29T11:36:25.090Z,5.30
2023-03-29T11:39:03.609Z,7.30
2023-03-29T11:41:34.854Z,9.90
2023-03-29T11:44:05.900Z,7.00
2023-03-29T11:46:39.018Z,4.80
2023-03-29T11:49:14.402Z,4.60
2023-03-29T11:51:46.286Z,6.30
2023-03-29T11:54:21.381Z,5.80
2023-03-29T11:56:55.685Z,7.90
2023-03-29T11:59:30.769Z,4.60
2023-03-29T12:02:08.864Z,5.00
2023-03-29T12:04:42.204Z,6.10
2023-03-29T12:07:17.934Z,6.30
2023-03-29T12:09:52.118Z,6.70
2023-03-29T12:12:24.836Z,5.60
2023-03-29T12:15:02.827Z,5.30
2023-03-29T12:17:39.068Z,13.70
2023-03-29T12:20:14.959Z,9.60
2023-03-29T12:22:46.231Z,5.90
2023-03-29T12:25:20.205Z,6.40
2023-03-29T12:28:01.153Z,6.60
2023-03-29T12:30:39.203Z,6.20
2023-03-29T12:33:21.674Z,9.60
2023-03-29T12:36:10.515Z,10.10
2023-03-29T12:39:04.728Z,8.50
2023-03-29T12:41:53.031Z,8.50
2023-03-29T12:45:01.003Z,8.10
2023-03-29T12:47:41.797Z,7.80
2023-03-29T12:50:23.179Z,10.20
2023-03-29T12:52:51.259Z,9.30
2023-03-29T12:55:29.424Z,10.60
2023-03-29T12:58:07.699Z,8.60
2023-03-29T13:00:45.052Z,6.30
2023-03-29T13:03:28.760Z,14.00
2023-03-29T13:06:02.176Z,7.00
2023-03-29T13:08:35.861Z,8.10
2023-03-29T13:11:05.747Z,7.90
2023-03-29T13:13:39.920Z,5.10
2023-03-29T13:16:16.818Z,4.60
2023-03-29T13:18:56.901Z,5.30
2023-03-29T13:21:32.756Z,5.50
2023-03-29T13:24:13.525Z,4.70
2023-03-29T13:26:50.110Z,5.00
2023-03-29T13:29:42.103Z,3.50
2023-03-29T13:32:27.859Z,3.00
2023-03-29T13:35:03.673Z,5.10
2023-03-29T13:37:40.812Z,5.20
2023-03-29T13:40:31.571Z,5.80
2023-03-29T13:43:08.410Z,4.20
2023-03-29T13:45:38.224Z,4.00
2023-03-29T13:48:24.713Z,3.20
2023-03-29T13:50:55.775Z,5.00
2023-03-29T13:53:28.741Z,3.30
2023-03-29T13:55:59.036Z,4.20
2023-03-29T13:58:37.744Z,6.10
2023-03-29T14:01:13.218Z,8.10
2023-03-29T14:03:45.072Z,3.30
2023-03-29T14:06:17.461Z,3.80
2023-03-29T14:08:48.824Z,3.20
2023-03-29T14:11:22.947Z,4.60
2023-03-29T14:13:54.280Z,3.00
2023-03-29T14:16:26.802Z,4.10
2023-03-29T14:18:58.896Z,6.60
2023-03-29T14:21:27.499Z,3.50
2023-03-29T14:23:59.432Z,4.00
2023-03-29T14:26:31.940Z,5.80
2023-03-29T14:29:02.162Z,3.50
2023-03-29T14:31:34.796Z,4.00
2023-03-29T14:34:06.237Z,4.20
2023-03-29T14:36:38.241Z,6.60
2023-03-29T14:39:12.379Z,4.60
2023-03-29T14:41:46.898Z,2.90
2023-03-29T14:44:15.265Z,6.20
2023-03-29T14:46:46.282Z,5.60
2023-03-29T14:49:17.471Z,4.60
2023-03-29T14:51:47.160Z,5.50
2023-03-29T14:54:21.807Z,4.00
2023-03-29T14:56:50.861Z,8.90
2023-03-29T14:59:26.504Z,2.90
2023-03-29T15:01:54.939Z,3.60
2023-03-29T15:04:23.011Z,4.40
2023-03-29T15:06:52.985Z,3.60
2023-03-29T15:09:31.979Z,6.60
2023-03-29T15:12:01.569Z,4.40
2023-03-29T15:14:33.389Z,5.50
2023-03-29T15:17:04.722Z,6.60
2023-03-29T15:19:33.776Z,5.70
2023-03-29T15:22:10.253Z,4.40
2023-03-29T15:24:43.843Z,5.20
2023-03-29T15:27:15.074Z,5.40
2023-03-29T15:29:46.270Z,7.20
2023-03-29T15:32:22.464Z,6.20
2023-03-29T15:35:00.726Z,5.00
2023-03-29T15:37:29.060Z,4.50
2023-03-29T15:39:57.532Z,4.60
2023-03-29T15:42:26.195Z,7.90
2023-03-29T15:44:56.120Z,5.10
2023-03-29T15:47:24.519Z,4.80
2023-03-29T15:49:52.540Z,4.00
2023-03-29T15:52:20.464Z,4.80
2023-03-29T15:54:48.485Z,5.50
2023-03-29T15:57:17.686Z,9.10
2023-03-29T15:59:45.913Z,6.60
2023-03-29T16:02:15.881Z,6.40
2023-03-29T16:04:44.371Z,6.90
2023-03-29T16:07:16.440Z,5.80
2023-03-29T16:09:45.230Z,5.40
2023-03-29T16:12:15.567Z,6.80
2023-03-29T16:14:43.576Z,8.00
2023-03-29T16:17:12.023Z,6.60
2023-03-29T16:19:40.125Z,8.50
2023-03-29T16:22:08.279Z,5.70
2023-03-29T16:24:36.314Z,7.70
2023-03-29T16:27:04.900Z,14.70
2023-03-29T16:29:34.595Z,16.00
2023-03-29T16:32:05.490Z,7.30
2023-03-29T16:34:35.252Z,8.10
2023-03-29T16:37:05.421Z,8.10
2023-03-29T16:39:33.801Z,7.70
2023-03-29T16:42:03.719Z,8.60
2023-03-29T16:44:32.002Z,5.70
2023-03-29T16:47:00.982Z,5.10
2023-03-29T16:49:29.221Z,5.80
2023-03-29T16:51:59.323Z,5.60
2023-03-29T16:54:29.103Z,9.50
2023-03-29T16:56:57.395Z,7.20
2023-03-29T16:59:25.621Z,9.30
2023-03-29T17:01:53.673Z,7.70
2023-03-29T17:04:21.665Z,10.40
2023-03-29T17:06:51.134Z,8.90
2023-03-29T17:09:19.151Z,5.10
2023-03-29T17:11:48.231Z,9.60
2023-03-29T17:14:16.419Z,11.70
2023-03-29T17:16:46.124Z,9.40
2023-03-29T17:19:14.212Z,8.80
2023-03-29T17:21:42.490Z,14.40
2023-03-29T17:24:10.533Z,7.00
2023-03-29T17:26:38.500Z,8.90
2023-03-29T17:29:08.681Z,9.20
2023-03-29T17:31:37.493Z,8.10
2023-03-29T17:34:05.495Z,22.20
2023-03-29T17:36:33.384Z,13.30
2023-03-29T17:39:02.932Z,15.00
2023-03-29T17:41:31.326Z,7.90
2023-03-29T17:44:00.476Z,14.80
2023-03-29T17:46:28.804Z,11.70
2023-03-29T17:48:58.471Z,10.60
2023-03-29T17:51:29.183Z,8.70
2023-03-29T17:53:57.663Z,13.70
2023-03-29T17:56:26.075Z,13.40
2023-03-29T17:58:57.050Z,9.90
2023-03-29T18:01:26.293Z,22.30
2023-03-29T18:03:54.774Z,16.10
2023-03-29T18:06:22.708Z,12.00
2023-03-29T18:08:52.609Z,15.30
2023-03-29T18:11:23.250Z,9.30
2023-03-29T18:13:52.878Z,15.20
2023-03-29T18:16:21.931Z,19.20
2023-03-29T18:18:51.979Z,11.10
2023-03-29T18:21:21.327Z,21.10
2023-03-29T18:23:57.105Z,14.40
2023-03-29T18:26:25.728Z,8.90
2023-03-29T18:28:54.395Z,8.00
2023-03-29T18:31:22.560Z,11.10
2023-03-29T18:33:50.717Z,24.50
2023-03-29T18:36:18.828Z,11.50
2023-03-29T18:38:46.926Z,10.40
2023-03-29T18:41:15.241Z,13.20
2023-03-29T18:43:43.522Z,13.60
2023-03-29T18:46:11.851Z,10.80
2023-03-29T18:48:40.607Z,12.20
2023-03-29T18:51:10.284Z,9.10
2023-03-29T18:53:41.031Z,13.50
2023-03-29T18:56:08.984Z,14.90
2023-03-29T18:58:37.140Z,10.40
2023-03-29T19:01:06.608Z,11.70
2023-03-29T19:03:35.169Z,20.00
2023-03-29T19:06:03.977Z,13.50
2023-03-29T19:08:33.646Z,14.00
2023-03-29T19:11:03.030Z,19.30
2023-03-29T19:13:31.042Z,12.20
2023-03-29T19:15:59.088Z,12.50
2023-03-29T19:18:27.115Z,18.50
2023-03-29T19:20:55.574Z,14.00
2023-03-29T19:23:28.865Z,16.80
2023-03-29T19:26:00.945Z,22.20
2023-03-29T19:28:29.821Z,18.60
2023-03-29T19:30:59.736Z,13.70
2023-03-29T19:33:28.543Z,15.80
2023-03-29T19:35:56.873Z,17.50
2023-03-29T19:38:25.291Z,17.20
2023-03-29T19:40:53.288Z,16.80
2023-03-29T19:43:21.480Z,16.90
2023-03-29T19:45:50.829Z,17.50
2023-03-29T19:48:23.504Z,22.10
2023-03-29T19:50:52.141Z,17.80
2023-03-29T19:53:20.651Z,18.50
2023-03-29T19:55:49.042Z,17.00
2023-03-29T19:58:17.183Z,23.50
2023-03-29T20:00:46.028Z,17.50
2023-03-29T20:03:15.168Z,20.10
2023-03-29T20:05:43.408Z,18.50
2023-03-29T20:08:11.487Z,20.60
2023-03-29T20:10:39.475Z,21.40
2023-03-29T20:13:08.905Z,22.20
2023-03-29T20:15:36.952Z,18.30
2023-03-29T20:18:06.460Z,19.20
2023-03-29T20:20:35.117Z,23.70
2023-03-29T20:23:05.172Z,22.00
2023-03-29T20:25:35.504Z,22.20
2023-03-29T20:28:04.187Z,20.20
2023-03-29T20:30:32.331Z,24.40
2023-03-29T20:33:00.533Z,20.70
2023-03-29T20:35:28.565Z,25.50
2023-03-29T20:37:56.621Z,27.30
2023-03-29T20:40:24.766Z,24.60
2023-03-29T20:42:53.624Z,24.70
2023-03-29T20:45:21.884Z,20.90
2023-03-29T20:47:55.445Z,23.40
2023-03-29T20:50:29.654Z,20.30
2023-03-29T20:53:03.096Z,25.10
2023-03-29T20:55:32.604Z,26.10
2023-03-29T20:58:01.485Z,24.80
2023-03-29T21:00:32.233Z,24.30
2023-03-29T21:03:01.145Z,31.10
2023-03-29T21:05:31.230Z,25.00
2023-03-29T21:08:00.109Z,28.10
2023-03-29T21:10:29.066Z,26.40
2023-03-29T21:12:59.482Z,36.30
2023-03-29T21:15:29.608Z,27.10
2023-03-29T21:17:58.202Z,25.90
2023-03-29T21:20:27.329Z,32.80
2023-03-29T21:22:55.345Z,26.80
2023-03-29T21:25:23.403Z,28.10
2023-03-29T21:27:51.351Z,32.50
2023-03-29T21:30:19.416Z,27.20
2023-03-29T21:32:47.401Z,26.70
2023-03-29T21:35:15.484Z,30.50
2023-03-29T21:37:43.652Z,27.10
2023-03-29T21:40:13.758Z,29.80
2023-03-29T21:42:41.753Z,27.10
2023-03-29T21:45:11.539Z,26.60
2023-03-29T21:47:39.673Z,33.30
2023-03-29T21:50:10.096Z,28.20
2023-03-29T21:52:38.372Z,30.70
2023-03-29T21:55:07.462Z,27.40
2023-03-29T21:57:35.831Z,32.20
2023-03-29T22:00:10.223Z,27.80
2023-03-29T22:02:38.910Z,35.10
2023-03-29T22:05:08.313Z,30.50
2023-03-29T22:07:38.041Z,31.30
2023-03-29T22:10:08.750Z,27.10
2023-03-29T22:12:37.967Z,24.20
2023-03-29T22:15:08.207Z,30.80
2023-03-29T22:17:36.289Z,26.60
2023-03-29T22:20:12.181Z,24.80
2023-03-29T22:22:43.711Z,29.30
2023-03-29T22:25:12.506Z,29.10
2023-03-29T22:27:41.981Z,30.00
2023-03-29T22:30:12.099Z,26.90
2023-03-29T22:32:40.506Z,28.90
2023-03-29T22:35:10.304Z,27.40
2023-03-29T22:37:41.687Z,27.10
2023-03-29T22:40:12.691Z,26.30
2023-03-29T22:42:41.096Z,27.20
2023-03-29T22:45:14.547Z,25.40
2023-03-29T22:47:42.776Z,27.40
2023-03-29T22:50:11.926Z,21.60
2023-03-29T22:52:39.952Z,28.60
2023-03-29T22:55:09.230Z,26.40
2023-03-29T22:57:37.384Z,25.10
2023-03-29T23:00:08.274Z,25.40
2023-03-29T23:02:36.755Z,27.30
2023-03-29T23:05:06.265Z,25.60
2023-03-29T23:07:35.824Z,29.20
2023-03-29T23:10:06.308Z,31.50
2023-03-29T23:12:35.507Z,30.80
2023-03-29T23:15:05.764Z,24.10
2023-03-29T23:17:34.570Z,26.30
2023-03-29T23:20:05.735Z,23.10
2023-03-29T23:22:35.677Z,21.00
2023-03-29T23:25:04.070Z,26.10
2023-03-29T23:27:32.486Z,23.30
2023-03-29T23:30:01.154Z,26.30
2023-03-29T23:32:29.362Z,23.90
2023-03-29T23:34:57.958Z,25.70
2023-03-29T23:37:26.096Z,21.80
2023-03-29T23:39:54.279Z,26.00
2023-03-29T23:42:22.415Z,20.20
2023-03-29T23:44:50.437Z,25.40
2023-03-29T23:47:18.911Z,28.40
2023-03-29T23:49:47.241Z,21.20
2023-03-29T23:52:15.315Z,26.60
2023-03-29T23:54:43.361Z,23.00
2023-03-29T23:57:11.969Z,24.90
2023-03-29T23:59:42.012Z,22.30
